Hlavní strana
METAR-TAF:

METAR-TAF

Letiště :

Ancona, Itálie

zeměpisná šířka: 43-37N, zeměpisná délka: 013-22E, výška: 12 m

Aktuální stav počasí

Zpráva byla vytvořena před 1 hodinou a 20 minutami, v 18:50 UTC
Jižní vítr 6 kt, proměnlivý mezi jihojihovýchodním a jihojihozápadním
Teplota 7°C
Vlhkost vzduchu 61%
Tlak 1019 hPa
Viditelnost 10 km a více
Polojasno ve výšce 4500 ft

METAR: LIPY 111850Z 19006KT 150V210 9999 SCT045 07/00 Q1019

Čas: 21:10 (20:10 UTC)

Předpověď počasí

Zpráva byla vytvořena před 3 hodinami a 10 minutami, v 17:00 UTC
Předpověď platná od 11 v 18 UTC do 12 v 18 UTC
Severoseverovýchodní vítr 10 kt
Viditelnost 10 km a více
Skoro jasno ve výšce 3000 ft
Dočasný
od 12 v 00 UTC do 12 v 10 UTC
bouřka, déšť
Změna
od 12 v 10 UTC do 12 v 12 UTC
vítr z různých směrů 5 kt

TAF: LIPY 111700Z 1118/1218 02010KT 9999 FEW030 TEMPO 1200/1210 TSRA BECMG 1210/1212 VRB05KT

Stav a předpovědi počasí z více než 4 000 letišť (zprávy METAR a TAF).

Červené a žluté tečky na mapě představují dostupné meteorologické stanice.

Když kurzor umístíte na tečku, zobrazí se název stanice.

Pak kliknutím zobrazíte stav a předpověď počasí.

Chcete-li změnit mapu, kliknutím na zelené tlačítko se znaménkem +mapu přiblížíte, kliknutím na zelené tlačítko se znaménkem – mapu oddálíte a kliknutím na zelené šipky přejdete na sousední mapy.


METAR-TAF: